createdAt,value
2019-03-19T00:00:59.343Z,23.22
2019-03-19T00:03:28.054Z,18.98
2019-03-19T00:05:56.712Z,24.47
2019-03-19T00:08:25.410Z,29.27
2019-03-19T00:10:53.835Z,22.13
2019-03-19T00:13:22.187Z,21.82
2019-03-19T00:15:50.687Z,23.50
2019-03-19T00:18:19.853Z,20.95
2019-03-19T00:20:48.668Z,17.65
2019-03-19T00:23:17.578Z,17.45
2019-03-19T00:25:45.826Z,24.00
2019-03-19T00:28:14.377Z,22.73
2019-03-19T00:30:42.959Z,20.75
2019-03-19T00:33:11.359Z,19.10
2019-03-19T00:35:40.121Z,20.62
2019-03-19T00:38:08.766Z,24.30
2019-03-19T00:40:37.129Z,20.65
2019-03-19T00:43:05.481Z,18.00
2019-03-19T00:45:33.882Z,23.12
2019-03-19T00:48:02.229Z,17.55
2019-03-19T00:50:31.261Z,19.87
2019-03-19T00:52:59.905Z,20.65
2019-03-19T00:55:28.319Z,29.50
2019-03-19T00:57:56.652Z,22.60
2019-03-19T01:00:25.040Z,18.40
2019-03-19T01:02:53.748Z,21.33
2019-03-19T01:05:22.499Z,18.20
2019-03-19T01:07:50.735Z,21.62
2019-03-19T01:10:19.191Z,19.05
2019-03-19T01:12:47.551Z,17.92
2019-03-19T01:15:15.929Z,20.65
2019-03-19T01:17:44.291Z,19.20
2019-03-19T01:20:13.119Z,20.32
2019-03-19T01:22:41.420Z,23.85
2019-03-19T01:25:10.201Z,20.88
2019-03-19T01:27:38.818Z,21.48
2019-03-19T01:30:09.489Z,19.25
2019-03-19T01:32:37.985Z,22.10
2019-03-19T01:35:07.065Z,17.65
2019-03-19T01:37:36.082Z,24.70
2019-03-19T01:40:05.309Z,25.40
2019-03-19T01:42:33.670Z,18.80
2019-03-19T01:45:02.068Z,19.15
2019-03-19T01:47:30.682Z,26.27
2019-03-19T01:49:59.404Z,24.60
2019-03-19T01:52:28.087Z,17.82
2019-03-19T01:54:56.505Z,21.23
2019-03-19T01:57:24.883Z,21.23
2019-03-19T01:59:53.286Z,24.07
2019-03-19T02:02:21.646Z,20.85
2019-03-19T02:04:50.085Z,25.50
2019-03-19T02:07:18.260Z,25.40
2019-03-19T02:09:46.743Z,24.67
2019-03-19T02:12:15.442Z,23.98
2019-03-19T02:14:43.861Z,16.42
2019-03-19T02:17:12.799Z,22.77
2019-03-19T02:19:41.787Z,19.67
2019-03-19T02:22:10.207Z,21.37
2019-03-19T02:24:38.617Z,17.35
2019-03-19T02:27:06.933Z,17.70
2019-03-19T02:29:35.324Z,22.98
2019-03-19T02:32:03.753Z,18.95
2019-03-19T02:34:32.276Z,18.70
2019-03-19T02:37:00.741Z,25.05
2019-03-19T02:39:29.515Z,17.73
2019-03-19T02:41:57.979Z,17.52
2019-03-19T02:44:26.546Z,20.45
2019-03-19T02:46:54.927Z,15.32
2019-03-19T02:49:23.312Z,20.85
2019-03-19T02:51:51.664Z,19.67
2019-03-19T02:54:20.081Z,17.60
2019-03-19T02:56:48.452Z,21.97
2019-03-19T02:59:17.126Z,17.77
2019-03-19T03:01:45.576Z,24.45
2019-03-19T03:04:13.913Z,19.98
2019-03-19T03:06:42.597Z,23.52
2019-03-19T03:09:10.948Z,20.12
2019-03-19T03:11:39.347Z,17.70
2019-03-19T03:14:07.740Z,25.72
2019-03-19T03:16:36.485Z,24.12
2019-03-19T03:19:05.067Z,20.97
2019-03-19T03:21:34.771Z,20.20
2019-03-19T03:24:03.559Z,19.03
2019-03-19T03:26:46.469Z,24.07
2019-03-19T03:29:02.291Z,21.60
2019-03-19T03:31:30.735Z,23.55
2019-03-19T03:33:59.400Z,19.40
2019-03-19T03:36:27.744Z,18.42
2019-03-19T03:38:56.421Z,21.25
2019-03-19T03:41:24.861Z,19.50
2019-03-19T03:43:53.487Z,22.32
2019-03-19T03:46:22.173Z,22.95
2019-03-19T03:48:50.893Z,23.05
2019-03-19T03:51:19.638Z,15.53
2019-03-19T03:53:48.056Z,19.85
2019-03-19T03:56:16.889Z,16.37
2019-03-19T03:58:59.625Z,14.70
2019-03-19T04:01:15.709Z,15.58
2019-03-19T04:03:44.227Z,20.88
2019-03-19T04:06:12.511Z,20.35
2019-03-19T04:08:40.974Z,25.00
2019-03-19T04:11:09.332Z,24.87
2019-03-19T04:13:39.278Z,31.35
2019-03-19T04:16:07.735Z,28.67
2019-03-19T04:18:36.314Z,25.88
2019-03-19T04:21:04.705Z,25.00
2019-03-19T04:23:34.267Z,20.52
2019-03-19T04:26:02.735Z,30.65
2019-03-19T04:28:30.967Z,31.05
2019-03-19T04:30:59.217Z,27.62
2019-03-19T04:33:27.528Z,27.30
2019-03-19T04:35:55.933Z,30.62
2019-03-19T04:38:24.484Z,30.97
2019-03-19T04:40:53.004Z,26.23
2019-03-19T04:43:21.438Z,29.70
2019-03-19T04:45:49.761Z,31.77
2019-03-19T04:48:18.262Z,19.57
2019-03-19T04:50:46.819Z,29.52
2019-03-19T04:53:15.541Z,26.62
2019-03-19T04:55:43.855Z,16.40
2019-03-19T04:58:12.330Z,30.85
2019-03-19T05:00:41.276Z,20.02
2019-03-19T05:03:09.697Z,23.83
2019-03-19T05:05:38.026Z,22.90
2019-03-19T05:08:06.263Z,19.82
2019-03-19T05:10:34.839Z,23.62
2019-03-19T05:13:03.316Z,25.80
2019-03-19T05:15:31.634Z,17.20
2019-03-19T05:17:59.907Z,17.42
2019-03-19T05:20:28.296Z,16.17
2019-03-19T05:22:56.934Z,28.73
2019-03-19T05:25:25.404Z,17.65
2019-03-19T05:27:53.695Z,18.05
2019-03-19T05:30:22.414Z,19.55
2019-03-19T05:32:50.858Z,22.85
2019-03-19T05:35:19.206Z,16.45
2019-03-19T05:37:47.691Z,25.90
2019-03-19T05:40:16.539Z,29.52
2019-03-19T05:42:45.282Z,31.87
2019-03-19T05:45:13.610Z,23.73
2019-03-19T05:47:42.448Z,27.17
2019-03-19T05:50:11.209Z,21.00
2019-03-19T05:52:40.017Z,21.45
2019-03-19T05:55:08.835Z,23.12
2019-03-19T05:57:48.473Z,23.50
2019-03-19T06:00:09.205Z,23.65
2019-03-19T06:02:37.891Z,27.73
2019-03-19T06:05:08.699Z,41.25
2019-03-19T06:07:37.313Z,25.32
2019-03-19T06:10:06.053Z,24.05
2019-03-19T06:12:34.754Z,24.15
2019-03-19T06:15:03.726Z,24.92
2019-03-19T06:17:32.158Z,21.48
2019-03-19T06:20:00.425Z,21.62
2019-03-19T06:22:28.924Z,23.10
2019-03-19T06:24:57.545Z,27.30
2019-03-19T06:27:26.238Z,23.00
2019-03-19T06:29:54.886Z,20.17
2019-03-19T06:32:23.348Z,22.10
2019-03-19T06:34:51.655Z,21.25
2019-03-19T06:37:20.029Z,19.27
2019-03-19T06:39:50.751Z,26.57
2019-03-19T06:42:19.012Z,20.43
2019-03-19T06:44:47.595Z,24.47
2019-03-19T06:47:16.089Z,20.75
2019-03-19T06:49:44.596Z,17.30
2019-03-19T06:52:13.124Z,14.33
2019-03-19T06:54:41.994Z,20.17
2019-03-19T06:57:10.848Z,23.95
2019-03-19T06:59:39.459Z,22.32
2019-03-19T07:02:08.546Z,24.77
2019-03-19T07:04:37.487Z,25.52
2019-03-19T07:07:05.841Z,21.97
2019-03-19T07:09:34.630Z,24.27
2019-03-19T07:12:03.881Z,23.83
2019-03-19T07:14:32.195Z,22.45
2019-03-19T07:17:00.696Z,20.02
2019-03-19T07:19:28.967Z,25.90
2019-03-19T07:21:57.411Z,21.95
2019-03-19T07:24:25.665Z,24.10
2019-03-19T07:26:54.519Z,18.75
2019-03-19T07:29:22.907Z,18.02
2019-03-19T07:31:51.543Z,26.45
2019-03-19T07:34:20.487Z,25.57
2019-03-19T07:36:48.906Z,29.35
2019-03-19T07:39:17.602Z,29.65
2019-03-19T07:41:45.904Z,22.95
2019-03-19T07:44:14.316Z,23.00
2019-03-19T07:46:42.984Z,23.67
2019-03-19T07:49:11.357Z,22.25
2019-03-19T07:51:39.759Z,21.17
2019-03-19T07:54:08.233Z,30.45
2019-03-19T07:56:36.843Z,30.95
2019-03-19T07:59:05.220Z,21.00
2019-03-19T08:01:33.466Z,26.23
2019-03-19T08:04:02.219Z,25.32
2019-03-19T08:06:32.684Z,23.52
2019-03-19T08:09:00.875Z,27.55
2019-03-19T08:11:29.307Z,19.17
2019-03-19T08:13:57.586Z,26.57
2019-03-19T08:16:27.614Z,18.50
2019-03-19T08:18:55.985Z,18.17
2019-03-19T08:21:24.430Z,27.67
2019-03-19T08:23:52.717Z,29.20
2019-03-19T08:26:20.984Z,26.70
2019-03-19T08:28:55.322Z,26.87
2019-03-19T08:31:19.633Z,17.55
2019-03-19T08:33:48.101Z,26.57
2019-03-19T08:36:16.425Z,19.67
2019-03-19T08:38:44.850Z,21.50
2019-03-19T08:41:13.180Z,17.85
2019-03-19T08:43:41.886Z,22.95
2019-03-19T08:46:10.243Z,23.70
2019-03-19T08:48:38.521Z,21.73
2019-03-19T08:51:07.006Z,19.60
2019-03-19T08:53:35.770Z,16.55
2019-03-19T08:56:04.071Z,20.40
2019-03-19T08:58:32.434Z,18.12
2019-03-19T09:01:01.308Z,26.85
2019-03-19T09:03:29.504Z,23.38
2019-03-19T09:05:57.874Z,27.73
2019-03-19T09:08:26.249Z,23.18
2019-03-19T09:10:55.011Z,20.75
2019-03-19T09:13:23.277Z,24.45
2019-03-19T09:15:52.063Z,32.05
2019-03-19T09:18:20.362Z,16.07
2019-03-19T09:20:49.189Z,19.00
2019-03-19T09:23:17.849Z,26.73
2019-03-19T09:25:46.379Z,25.90
2019-03-19T09:28:14.838Z,31.80
2019-03-19T09:30:43.667Z,34.55
2019-03-19T09:33:12.305Z,28.87
2019-03-19T09:35:41.331Z,29.85
2019-03-19T09:38:09.900Z,23.75
2019-03-19T09:40:38.665Z,22.75
2019-03-19T09:43:07.702Z,29.37
2019-03-19T09:45:36.412Z,32.15
2019-03-19T09:48:04.928Z,24.07
2019-03-19T09:50:34.089Z,21.97
2019-03-19T09:53:02.760Z,34.35
2019-03-19T09:55:31.762Z,24.82
2019-03-19T09:58:02.134Z,30.97
2019-03-19T10:00:30.865Z,26.05
2019-03-19T10:02:59.345Z,29.45
2019-03-19T10:05:27.968Z,29.70
2019-03-19T10:07:56.322Z,31.95
2019-03-19T10:10:24.818Z,25.02
2019-03-19T10:12:53.612Z,34.08
2019-03-19T10:15:22.449Z,25.68
2019-03-19T10:17:50.704Z,27.60
2019-03-19T10:20:19.177Z,25.77
2019-03-19T10:22:47.813Z,28.57
2019-03-19T10:25:16.431Z,24.12
2019-03-19T10:27:44.915Z,29.77
2019-03-19T10:30:16.095Z,21.75
2019-03-19T10:32:45.333Z,24.65
2019-03-19T10:35:14.220Z,24.25
2019-03-19T10:37:42.608Z,33.33
2019-03-19T10:40:11.474Z,22.93
2019-03-19T10:42:40.035Z,25.60
2019-03-19T10:45:09.577Z,27.60
2019-03-19T10:47:38.595Z,25.52
2019-03-19T10:50:12.411Z,19.73
2019-03-19T10:52:41.310Z,19.75
2019-03-19T10:55:10.279Z,25.90
2019-03-19T10:57:39.013Z,21.70
2019-03-19T11:00:16.727Z,22.55
2019-03-19T11:02:45.926Z,22.27
2019-03-19T11:05:14.701Z,24.45
2019-03-19T11:07:43.216Z,24.10
2019-03-19T11:10:12.225Z,28.75
2019-03-19T11:12:40.710Z,19.00
2019-03-19T11:15:12.277Z,25.60
2019-03-19T11:17:41.113Z,23.65
2019-03-19T11:20:11.658Z,26.10
2019-03-19T11:22:40.337Z,21.95
2019-03-19T11:25:11.615Z,22.35
2019-03-19T11:27:40.157Z,24.32
2019-03-19T11:30:16.661Z,25.75
2019-03-19T11:32:45.337Z,28.70
2019-03-19T11:35:14.715Z,22.62
2019-03-19T11:37:43.489Z,22.15
2019-03-19T11:40:13.075Z,16.95
2019-03-19T11:42:41.554Z,33.08
2019-03-19T11:45:11.608Z,16.87
2019-03-19T11:47:40.201Z,28.92
2019-03-19T11:50:15.443Z,17.62
2019-03-19T11:52:44.346Z,20.37
2019-03-19T11:55:13.895Z,22.22
2019-03-19T11:57:42.555Z,24.60
2019-03-19T12:00:27.521Z,23.00
2019-03-19T12:02:55.885Z,21.02
2019-03-19T12:05:24.234Z,23.52
2019-03-19T12:07:52.744Z,24.70
2019-03-19T12:10:21.615Z,21.25
2019-03-19T12:12:50.604Z,20.92
2019-03-19T12:15:19.126Z,21.77
2019-03-19T12:17:48.915Z,28.67
2019-03-19T12:20:17.520Z,17.30
2019-03-19T12:22:46.062Z,26.62
2019-03-19T12:25:14.605Z,25.45
2019-03-19T12:27:43.300Z,25.05
2019-03-19T12:30:21.645Z,28.75
2019-03-19T12:32:43.028Z,29.63
2019-03-19T12:35:12.003Z,24.47
2019-03-19T12:37:40.557Z,25.12
2019-03-19T12:40:11.716Z,24.20
2019-03-19T12:42:40.164Z,29.25
2019-03-19T12:45:10.784Z,26.90
2019-03-19T12:47:39.594Z,30.15
2019-03-19T12:50:11.092Z,32.38
2019-03-19T12:52:39.779Z,27.67
2019-03-19T12:55:08.919Z,26.80
2019-03-19T12:57:37.563Z,30.00
2019-03-19T13:00:13.054Z,32.15
2019-03-19T13:02:41.586Z,24.63
2019-03-19T13:05:10.646Z,22.98
2019-03-19T13:07:39.619Z,25.62
2019-03-19T13:10:11.734Z,27.65
2019-03-19T13:12:40.574Z,28.75
2019-03-19T13:15:10.580Z,34.95
2019-03-19T13:17:39.229Z,30.57
2019-03-19T13:20:09.739Z,34.43
2019-03-19T13:22:38.371Z,30.85
2019-03-19T13:25:11.793Z,26.07
2019-03-19T13:27:40.724Z,31.40
2019-03-19T13:30:13.284Z,27.20
2019-03-19T13:32:41.828Z,23.60
2019-03-19T13:35:10.528Z,30.52
2019-03-19T13:37:39.614Z,26.80
2019-03-19T13:40:09.527Z,29.52
2019-03-19T13:42:38.718Z,34.53
2019-03-19T13:45:08.235Z,31.90
2019-03-19T13:47:36.990Z,23.35
2019-03-19T13:50:06.557Z,23.73
2019-03-19T13:52:35.060Z,29.15
2019-03-19T13:55:04.760Z,20.23
2019-03-19T13:57:33.502Z,27.75
2019-03-19T14:00:02.434Z,31.60
2019-03-19T14:02:30.959Z,28.75
2019-03-19T14:04:59.569Z,23.20
2019-03-19T14:07:28.265Z,24.23
2019-03-19T14:09:57.272Z,29.90
2019-03-19T14:12:25.667Z,34.90
2019-03-19T14:14:54.590Z,26.68
2019-03-19T14:17:23.219Z,25.62
2019-03-19T14:19:51.688Z,25.88
2019-03-19T14:22:20.182Z,26.95
2019-03-19T14:24:48.454Z,27.10
2019-03-19T14:27:16.997Z,21.87
2019-03-19T14:29:45.551Z,20.23
2019-03-19T14:32:14.275Z,24.15
2019-03-19T14:34:42.908Z,29.80
2019-03-19T14:37:12.456Z,28.83
2019-03-19T14:39:41.301Z,24.07
2019-03-19T14:42:09.981Z,30.60
2019-03-19T14:44:38.652Z,28.02
2019-03-19T14:47:07.030Z,28.57
2019-03-19T14:49:46.081Z,34.48
2019-03-19T14:52:06.448Z,26.23
2019-03-19T14:54:35.224Z,30.80
2019-03-19T14:57:03.821Z,29.95
2019-03-19T14:59:32.109Z,27.80
2019-03-19T15:02:01.249Z,38.00
2019-03-19T15:04:29.594Z,27.95
2019-03-19T15:06:58.479Z,27.67
2019-03-19T15:09:26.993Z,25.30
2019-03-19T15:11:55.408Z,30.70
2019-03-19T15:14:23.900Z,29.25
2019-03-19T15:16:52.610Z,29.20
2019-03-19T15:19:21.166Z,39.60
2019-03-19T15:21:49.611Z,32.63
2019-03-19T15:24:18.179Z,32.17
2019-03-19T15:26:46.566Z,34.23
2019-03-19T15:29:14.904Z,34.63
2019-03-19T15:31:43.431Z,28.25
2019-03-19T15:34:11.820Z,34.30
2019-03-19T15:36:40.379Z,26.40
2019-03-19T15:39:09.046Z,29.52
2019-03-19T15:41:37.793Z,34.15
2019-03-19T15:44:06.490Z,31.35
2019-03-19T15:46:34.852Z,26.05
2019-03-19T15:49:03.570Z,30.30
2019-03-19T15:51:31.980Z,34.92
2019-03-19T15:54:02.083Z,31.17
2019-03-19T15:56:30.803Z,34.03
2019-03-19T15:58:59.216Z,33.23
2019-03-19T16:01:27.820Z,24.85
2019-03-19T16:03:56.303Z,31.02
2019-03-19T16:06:24.702Z,22.98
2019-03-19T16:08:53.611Z,30.72
2019-03-19T16:11:22.041Z,30.32
2019-03-19T16:13:50.721Z,28.25
2019-03-19T16:16:19.090Z,29.57
2019-03-19T16:18:48.116Z,31.97
2019-03-19T16:21:17.081Z,36.13
2019-03-19T16:23:46.077Z,33.78
2019-03-19T16:26:15.026Z,34.58
2019-03-19T16:28:44.645Z,35.15
2019-03-19T16:31:13.651Z,39.33
2019-03-19T16:33:42.495Z,31.57
2019-03-19T16:36:13.116Z,35.80
2019-03-19T16:38:41.717Z,32.73
2019-03-19T16:41:10.489Z,39.40
2019-03-19T16:43:39.516Z,36.60
2019-03-19T16:46:08.175Z,39.60
2019-03-19T16:48:36.947Z,36.20
2019-03-19T16:51:05.928Z,38.75
2019-03-19T16:53:35.237Z,32.25
2019-03-19T16:56:04.469Z,34.90
2019-03-19T16:58:33.243Z,39.50
2019-03-19T17:01:01.927Z,39.67
2019-03-19T17:03:30.678Z,43.25
2019-03-19T17:05:59.600Z,32.95
2019-03-19T17:08:27.956Z,38.98
2019-03-19T17:10:57.913Z,37.93
2019-03-19T17:13:26.656Z,28.05
2019-03-19T17:15:55.386Z,30.62
2019-03-19T17:18:23.964Z,43.65
2019-03-19T17:20:52.956Z,39.33
2019-03-19T17:23:21.301Z,42.65
2019-03-19T17:25:50.030Z,31.33
2019-03-19T17:28:22.747Z,36.03
2019-03-19T17:30:49.092Z,40.98
2019-03-19T17:33:17.651Z,44.33
2019-03-19T17:35:46.402Z,50.10
2019-03-19T17:38:14.940Z,42.60
2019-03-19T17:40:44.012Z,47.83
2019-03-19T17:43:13.167Z,57.20
2019-03-19T17:45:41.966Z,39.92
2019-03-19T17:48:16.195Z,42.20
2019-03-19T17:50:41.133Z,39.13
2019-03-19T17:53:09.775Z,43.55
2019-03-19T17:55:38.971Z,47.48
2019-03-19T17:58:07.840Z,52.45
2019-03-19T18:00:38.777Z,60.08
2019-03-19T18:03:07.479Z,49.08
2019-03-19T18:05:36.071Z,60.05
2019-03-19T18:08:05.167Z,54.05
2019-03-19T18:10:34.132Z,49.13
2019-03-19T18:13:02.842Z,57.75
2019-03-19T18:15:31.334Z,55.12
2019-03-19T18:17:59.827Z,56.60
2019-03-19T18:20:28.264Z,44.98
2019-03-19T18:22:57.139Z,43.10
2019-03-19T18:25:26.221Z,43.58
2019-03-19T18:27:55.096Z,48.10
2019-03-19T18:30:23.935Z,42.85
2019-03-19T18:32:52.686Z,48.25
2019-03-19T18:35:21.307Z,51.68
2019-03-19T18:37:49.845Z,48.20
2019-03-19T18:40:18.487Z,55.65
2019-03-19T18:42:47.166Z,52.40
2019-03-19T18:45:15.436Z,49.98
2019-03-19T18:47:44.394Z,44.88
2019-03-19T18:50:13.612Z,44.45
2019-03-19T18:52:42.195Z,62.35
2019-03-19T18:55:11.131Z,43.83
2019-03-19T18:57:41.558Z,45.55
2019-03-19T19:00:12.972Z,55.12
2019-03-19T19:02:49.634Z,54.77
2019-03-19T19:05:12.528Z,53.28
2019-03-19T19:07:41.410Z,46.88
2019-03-19T19:10:10.685Z,54.20
2019-03-19T19:12:39.676Z,55.73
2019-03-19T19:15:10.819Z,53.52
2019-03-19T19:17:40.020Z,49.00
2019-03-19T19:20:09.352Z,50.23
2019-03-19T19:22:38.646Z,62.25
2019-03-19T19:25:10.038Z,56.65
2019-03-19T19:27:38.971Z,49.73
2019-03-19T19:30:10.866Z,58.38
2019-03-19T19:32:39.433Z,60.80
2019-03-19T19:35:08.219Z,56.08
2019-03-19T19:37:36.532Z,65.00
2019-03-19T19:40:07.502Z,75.42
2019-03-19T19:42:36.623Z,68.92
2019-03-19T19:45:05.522Z,70.45
2019-03-19T19:47:34.371Z,71.35
2019-03-19T19:50:03.182Z,65.70
2019-03-19T19:52:31.746Z,66.25
2019-03-19T19:55:00.066Z,63.73
2019-03-19T19:57:29.304Z,70.78
2019-03-19T19:59:57.765Z,76.75
2019-03-19T20:02:26.148Z,70.87
2019-03-19T20:05:02.530Z,73.87
2019-03-19T20:07:24.680Z,80.17
2019-03-19T20:09:53.074Z,78.17
2019-03-19T20:12:21.491Z,76.77
2019-03-19T20:14:49.876Z,79.10
2019-03-19T20:17:18.272Z,69.85
2019-03-19T20:19:46.594Z,65.97
2019-03-19T20:22:15.185Z,76.85
2019-03-19T20:24:43.991Z,68.47
2019-03-19T20:27:12.378Z,76.37
2019-03-19T20:29:40.854Z,65.42
2019-03-19T20:32:09.778Z,68.55
2019-03-19T20:34:38.460Z,73.95
2019-03-19T20:37:06.883Z,71.45
2019-03-19T20:39:35.507Z,57.98
2019-03-19T20:42:03.977Z,71.12
2019-03-19T20:44:32.561Z,64.77
2019-03-19T20:47:02.541Z,65.97
2019-03-19T20:49:31.157Z,70.15
2019-03-19T20:51:59.523Z,56.85
2019-03-19T20:54:28.180Z,58.40
2019-03-19T20:56:57.000Z,63.83
2019-03-19T20:59:25.413Z,63.90
2019-03-19T21:01:54.114Z,73.28
2019-03-19T21:04:22.721Z,65.28
2019-03-19T21:06:51.393Z,60.63
2019-03-19T21:09:19.721Z,62.30
2019-03-19T21:11:48.222Z,68.15
2019-03-19T21:14:16.485Z,74.53
2019-03-19T21:16:44.930Z,63.38
2019-03-19T21:19:13.231Z,76.55
2019-03-19T21:21:41.638Z,67.42
2019-03-19T21:24:10.051Z,73.05
2019-03-19T21:26:38.361Z,74.58
2019-03-19T21:29:06.834Z,76.60
2019-03-19T21:31:35.431Z,69.03
2019-03-19T21:34:03.910Z,74.75
2019-03-19T21:36:32.247Z,72.15
2019-03-19T21:39:00.920Z,69.72
2019-03-19T21:41:29.296Z,73.37
2019-03-19T21:43:57.697Z,70.95
2019-03-19T21:46:26.347Z,72.03
2019-03-19T21:48:55.055Z,59.83
2019-03-19T21:51:23.747Z,75.00
2019-03-19T21:53:52.126Z,65.52
2019-03-19T21:56:20.498Z,62.65
2019-03-19T21:58:48.905Z,77.35
2019-03-19T22:01:17.149Z,68.70
2019-03-19T22:03:45.659Z,69.58
2019-03-19T22:06:16.409Z,68.07
2019-03-19T22:08:44.639Z,69.87
2019-03-19T22:11:13.261Z,67.75
2019-03-19T22:13:41.744Z,70.28
2019-03-19T22:16:10.566Z,58.17
2019-03-19T22:18:39.362Z,69.70
2019-03-19T22:21:08.377Z,61.00
2019-03-19T22:23:37.280Z,73.22
2019-03-19T22:26:05.780Z,72.42
2019-03-19T22:28:34.370Z,74.65
2019-03-19T22:31:02.723Z,64.37
2019-03-19T22:33:33.570Z,57.80
2019-03-19T22:38:29.744Z,71.20
2019-03-19T22:40:58.025Z,64.40
2019-03-19T22:43:26.536Z,60.23
2019-03-19T22:45:54.844Z,70.80
2019-03-19T22:48:23.250Z,67.37
2019-03-19T22:50:51.900Z,79.67
2019-03-19T22:53:20.315Z,87.45
2019-03-19T22:55:48.935Z,84.05
2019-03-19T22:58:17.367Z,93.87
2019-03-19T23:00:48.807Z,82.90
2019-03-19T23:03:17.844Z,76.20
2019-03-19T23:05:46.428Z,80.67
2019-03-19T23:08:15.037Z,71.22
2019-03-19T23:10:43.543Z,65.97
2019-03-19T23:13:12.370Z,67.67
2019-03-19T23:15:40.921Z,72.27
2019-03-19T23:18:09.361Z,77.37
2019-03-19T23:20:37.708Z,74.30
2019-03-19T23:23:06.384Z,72.00
2019-03-19T23:25:34.738Z,66.97
2019-03-19T23:28:03.338Z,69.12
2019-03-19T23:30:31.824Z,61.42
2019-03-19T23:33:00.536Z,66.50
2019-03-19T23:35:29.040Z,56.05
2019-03-19T23:37:57.561Z,71.47
2019-03-19T23:40:26.259Z,58.00
2019-03-19T23:42:54.909Z,68.17
2019-03-19T23:45:23.667Z,67.37
2019-03-19T23:47:52.062Z,60.55
2019-03-19T23:50:20.729Z,62.40
2019-03-19T23:52:49.110Z,56.75
2019-03-19T23:55:17.803Z,62.60
2019-03-19T23:57:46.128Z,58.83
